Time;durP1;ratioP1;P1;durP2;ratioP2;P2;SDS_P1;SDS_P2;PMS_P1;PMS_P2;Temp;Humidity;BMP_temperature;BMP_pressure;BME280_temperature;BME280_humidity;BME280_pressure;Samples;Min_cycle;Max_cycle;Signal;HPM_P1;HPM_P2
2023/03/15 00:00:10;;;;;;;1.83;1.73;;;2.90;99.90;;;;;;5014127;28;21913;-59
2023/03/15 00:02:37;;;;;;;2.87;2.13;;;2.80;99.90;;;;;;5022480;28;20176;-60
2023/03/15 00:05:03;;;;;;;2.53;2.33;;;2.80;99.90;;;;;;5029639;28;20438;-60
2023/03/15 00:07:29;;;;;;;2.57;2.37;;;2.80;99.90;;;;;;5023419;28;20514;-60
2023/03/15 00:09:55;;;;;;;6.37;2.53;;;2.80;99.90;;;;;;5024118;28;20532;-60
2023/03/15 00:12:23;;;;;;;2.37;2.17;;;2.80;99.90;;;;;;5019030;28;21009;-59
2023/03/15 00:14:50;;;;;;;2.33;2.13;;;2.70;99.90;;;;;;5020699;28;20208;-59
2023/03/15 00:17:15;;;;;;;2.43;2.23;;;2.70;99.90;;;;;;5027968;28;20479;-60
2023/03/15 00:19:41;;;;;;;2.43;2.23;;;2.60;99.90;;;;;;5025606;28;20448;-60
2023/03/15 00:22:07;;;;;;;2.60;2.40;;;2.60;99.90;;;;;;5020911;28;20813;-61
2023/03/15 00:24:32;;;;;;;3.00;2.70;;;2.60;99.90;;;;;;5027169;28;20184;-60
2023/03/15 00:26:58;;;;;;;2.57;2.30;;;2.60;99.90;;;;;;5024432;28;20215;-61
2023/03/15 00:29:24;;;;;;;3.07;2.03;;;2.50;99.90;;;;;;5028196;28;20217;-62
2023/03/15 00:31:50;;;;;;;3.67;2.57;;;2.50;99.90;;;;;;5025528;28;20214;-60
2023/03/15 00:34:17;;;;;;;3.87;2.50;;;2.50;99.90;;;;;;5026354;28;20183;-61
2023/03/15 00:36:44;;;;;;;4.43;2.70;;;2.50;99.90;;;;;;5022530;28;20437;-61
2023/03/15 00:39:10;;;;;;;2.53;2.33;;;2.50;99.90;;;;;;5025812;28;20516;-60
2023/03/15 00:41:36;;;;;;;2.87;2.63;;;2.50;99.90;;;;;;5021462;28;21133;-60
2023/03/15 00:44:03;;;;;;;1.67;1.57;;;2.50;99.90;;;;;;5022853;28;20426;-61
2023/03/15 00:46:29;;;;;;;2.60;2.03;;;2.50;99.90;;;;;;5022599;28;20436;-61
2023/03/15 00:48:54;;;;;;;1.80;1.70;;;2.40;99.90;;;;;;5018169;28;20465;-61
2023/03/15 00:51:22;;;;;;;1.90;1.80;;;2.40;99.90;;;;;;5020202;28;20437;-61
2023/03/15 00:53:50;;;;;;;2.33;1.90;;;2.30;99.90;;;;;;5021838;28;20177;-60
2023/03/15 00:56:19;;;;;;;2.60;1.80;;;2.20;99.90;;;;;;5018421;28;20442;-60
2023/03/15 00:58:45;;;;;;;1.50;1.40;;;2.10;99.90;;;;;;5024619;28;20466;-61
2023/03/15 01:01:12;;;;;;;1.90;1.80;;;2.10;99.90;;;;;;5019548;28;20444;-60
2023/03/15 01:03:39;;;;;;;3.10;1.50;;;2.00;99.90;;;;;;5025048;28;20163;-60
2023/03/15 01:06:07;;;;;;;2.07;1.30;;;2.00;99.90;;;;;;5022207;28;20446;-61
2023/03/15 01:08:33;;;;;;;1.60;1.30;;;1.90;99.90;;;;;;5023475;28;20476;-60
2023/03/15 01:11:03;;;;;;;1.67;1.57;;;1.90;99.90;;;;;;5026943;28;20446;-60
2023/03/15 01:13:29;;;;;;;4.83;2.00;;;1.90;99.90;;;;;;5021712;28;20172;-60
2023/03/15 01:15:55;;;;;;;5.23;1.80;;;1.90;99.90;;;;;;5027452;28;20917;-61
2023/03/15 01:18:20;;;;;;;4.87;2.30;;;1.80;99.90;;;;;;5027986;28;20186;-60
2023/03/15 01:20:46;;;;;;;6.73;2.17;;;1.80;99.90;;;;;;5026250;28;20275;-60
2023/03/15 01:23:12;;;;;;;2.97;2.30;;;1.70;99.90;;;;;;5028846;28;20269;-61
2023/03/15 01:25:37;;;;;;;2.93;2.23;;;1.70;99.90;;;;;;5024438;28;20183;-60
2023/03/15 01:28:03;;;;;;;3.33;1.80;;;1.70;99.90;;;;;;5021790;28;20195;-61
2023/03/15 01:30:29;;;;;;;6.10;2.10;;;1.70;99.50;;;;;;5026612;28;20213;-61
2023/03/15 01:32:55;;;;;;;8.97;2.37;;;1.60;99.90;;;;;;5027687;28;20179;-60
2023/03/15 01:35:21;;;;;;;8.00;2.13;;;1.70;99.10;;;;;;5023705;28;20180;-61
2023/03/15 01:37:50;;;;;;;8.20;2.23;;;1.70;98.70;;;;;;5027042;28;20603;-61
2023/03/15 01:40:16;;;;;;;4.77;2.07;;;1.60;98.70;;;;;;5027027;28;20228;-60
2023/03/15 01:43:10;;;;;;;5.70;2.10;;;1.70;99.70;;;;;;5018841;28;20466;-60
2023/03/15 01:46:00;;;;;;;2.73;2.33;;;1.70;99.70;;;;;;5021408;28;20440;-61
2023/03/15 01:48:34;;;;;;;6.03;2.50;;;1.70;99.90;;;;;;5022862;28;20530;-60
2023/03/15 01:51:05;;;;;;;3.03;1.90;;;1.70;99.90;;;;;;5020032;28;20478;-60
2023/03/15 01:53:31;;;;;;;3.70;2.03;;;1.70;99.80;;;;;;5025012;28;20416;-61
2023/03/15 01:55:58;;;;;;;6.00;2.00;;;1.70;98.60;;;;;;5020568;28;20930;-61
2023/03/15 01:58:26;;;;;;;5.70;2.13;;;1.70;98.80;;;;;;5020152;28;20488;-61
2023/03/15 02:00:52;;;;;;;5.00;2.43;;;1.70;99.00;;;;;;5022419;28;21197;-61
2023/03/15 02:03:22;;;;;;;3.90;2.50;;;1.70;94.40;;;;;;5025609;28;20422;-60
2023/03/15 02:05:54;;;;;;;3.93;2.20;;;1.80;96.10;;;;;;5023895;28;20667;-61
2023/03/15 02:08:23;;;;;;;2.50;2.30;;;1.70;95.40;;;;;;5024157;28;20431;-61
2023/03/15 02:10:55;;;;;;;6.77;2.30;;;1.70;95.80;;;;;;5021252;28;20550;-60
2023/03/15 02:13:23;;;;;;;5.30;2.20;;;1.70;96.30;;;;;;5020452;28;20430;-60
2023/03/15 02:15:52;;;;;;;4.73;2.17;;;1.70;96.20;;;;;;5025581;28;20448;-60
2023/03/15 02:18:18;;;;;;;3.43;2.20;;;1.70;96.50;;;;;;5019706;28;20468;-61
2023/03/15 02:21:11;;;;;;;7.83;2.67;;;1.70;97.00;;;;;;5025247;28;20485;-60
2023/03/15 02:23:37;;;;;;;9.93;2.90;;;1.60;95.70;;;;;;5023735;28;20430;-61
2023/03/15 02:26:33;;;;;;;4.20;2.10;;;1.60;95.30;;;;;;5026125;28;20441;-60
2023/03/15 02:29:00;;;;;;;2.50;2.30;;;1.60;96.50;;;;;;5024857;28;20203;-60
2023/03/15 02:31:26;;;;;;;5.40;2.53;;;1.60;97.40;;;;;;5024302;28;20787;-60
2023/03/15 02:33:54;;;;;;;10.73;2.77;;;1.60;98.50;;;;;;5024583;28;20440;-61
2023/03/15 02:36:21;;;;;;;5.60;2.30;;;1.60;99.90;;;;;;5024696;28;20454;-61
2023/03/15 02:38:48;;;;;;;8.00;3.30;;;1.60;97.10;;;;;;5023411;28;20471;-61
2023/03/15 02:41:36;;;;;;;5.27;2.67;;;1.60;97.60;;;;;;5026393;28;20425;-60
2023/03/15 02:44:07;;;;;;;2.67;2.33;;;1.60;95.60;;;;;;5017953;28;20477;-61
2023/03/15 02:46:34;;;;;;;3.60;2.73;;;1.60;94.70;;;;;;5022805;28;20994;-60
2023/03/15 02:49:00;;;;;;;5.27;3.10;;;1.50;94.90;;;;;;5019150;28;20606;-61
2023/03/15 02:51:28;;;;;;;4.20;2.77;;;1.50;95.90;;;;;;5020509;28;20954;-60
2023/03/15 02:53:54;;;;;;;4.37;2.50;;;1.50;94.40;;;;;;5018025;28;20527;-60
2023/03/15 02:56:20;;;;;;;5.70;3.30;;;1.50;93.40;;;;;;5017009;28;20552;-60
2023/03/15 02:58:46;;;;;;;18.40;3.40;;;1.50;94.70;;;;;;5020508;28;20473;-60
2023/03/15 03:01:13;;;;;;;4.90;2.50;;;1.40;95.30;;;;;;5018712;28;20186;-61
2023/03/15 03:03:40;;;;;;;6.63;2.93;;;1.40;94.10;;;;;;5021386;28;20472;-60
2023/03/15 03:06:06;;;;;;;4.13;2.70;;;1.40;94.30;;;;;;5021576;28;20464;-61
2023/03/15 03:08:32;;;;;;;6.60;3.00;;;1.30;95.20;;;;;;5024129;28;20438;-61
2023/03/15 03:10:58;;;;;;;7.57;2.90;;;1.30;94.10;;;;;;5019346;28;20536;-61
2023/03/15 03:13:24;;;;;;;3.53;2.30;;;1.30;92.60;;;;;;5021603;28;20556;-60
2023/03/15 03:15:57;;;;;;;5.83;2.77;;;1.30;93.80;;;;;;5022887;28;20193;-60
2023/03/15 03:18:34;;;;;;;7.77;3.23;;;1.20;93.40;;;;;;5029688;28;20209;-60
2023/03/15 03:21:05;;;;;;;5.00;3.37;;;1.10;92.10;;;;;;5026016;28;20441;-61
2023/03/15 03:23:32;;;;;;;5.77;2.63;;;1.10;93.00;;;;;;5031998;28;20433;-60
2023/03/15 03:25:59;;;;;;;6.90;3.33;;;1.10;92.20;;;;;;5025469;28;20917;-60
2023/03/15 03:28:27;;;;;;;6.50;2.70;;;1.00;92.60;;;;;;5029526;28;20513;-60
2023/03/15 03:30:54;;;;;;;4.20;2.83;;;1.00;91.10;;;;;;5025081;28;20468;-60
2023/03/15 03:33:20;;;;;;;3.47;3.17;;;1.00;89.10;;;;;;5029200;28;20446;-60
2023/03/15 03:35:47;;;;;;;3.43;2.70;;;0.90;88.50;;;;;;5028876;28;20433;-60
2023/03/15 03:38:13;;;;;;;5.80;2.83;;;0.90;89.30;;;;;;5026939;28;20466;-59
2023/03/15 03:40:39;;;;;;;3.13;2.53;;;0.90;90.20;;;;;;5024548;28;20463;-60
2023/03/15 03:43:06;;;;;;;6.73;3.50;;;0.80;90.50;;;;;;5028132;28;20627;-59
2023/03/15 03:45:32;;;;;;;6.03;2.73;;;0.80;91.10;;;;;;5023847;28;20456;-60
2023/03/15 03:47:57;;;;;;;2.77;2.53;;;0.80;91.20;;;;;;5023298;28;20459;-60
2023/03/15 03:50:23;;;;;;;9.83;3.10;;;0.80;90.80;;;;;;5025550;28;20454;-61
2023/03/15 03:52:49;;;;;;;9.97;2.70;;;0.80;91.20;;;;;;5026264;28;20817;-59
2023/03/15 03:55:15;;;;;;;4.53;3.27;;;0.80;91.90;;;;;;5028054;28;20209;-61
2023/03/15 03:57:42;;;;;;;11.37;3.30;;;0.80;92.30;;;;;;5025907;28;20511;-60
2023/03/15 04:00:10;;;;;;;3.50;2.60;;;0.70;93.10;;;;;;5022569;28;20682;-61
2023/03/15 04:02:36;;;;;;;6.43;3.33;;;0.80;93.50;;;;;;5025985;28;20465;-59
2023/03/15 04:05:02;;;;;;;5.17;3.23;;;0.80;94.00;;;;;;5026000;28;20468;-60
2023/03/15 04:07:28;;;;;;;7.40;3.00;;;0.80;93.90;;;;;;5025998;28;20444;-59
2023/03/15 04:09:54;;;;;;;8.27;3.10;;;0.80;93.60;;;;;;5028503;28;20454;-59
2023/03/15 04:12:19;;;;;;;6.40;3.60;;;0.80;93.80;;;;;;5022422;28;20189;-61
2023/03/15 04:14:45;;;;;;;4.53;3.73;;;0.80;93.70;;;;;;5025844;28;20182;-61
2023/03/15 04:17:11;;;;;;;13.67;3.60;;;0.80;93.50;;;;;;5024024;28;20206;-60
2023/03/15 04:19:36;;;;;;;6.47;3.50;;;0.80;94.60;;;;;;5024802;28;20256;-61
2023/03/15 04:22:05;;;;;;;4.90;3.40;;;0.80;95.40;;;;;;5023051;28;20203;-60
2023/03/15 04:24:34;;;;;;;5.53;3.20;;;0.80;96.30;;;;;;5023937;28;20210;-60
2023/03/15 04:27:00;;;;;;;6.40;3.60;;;0.80;96.10;;;;;;5020491;28;20425;-60
2023/03/15 04:29:27;;;;;;;5.07;3.20;;;0.80;97.30;;;;;;5023355;28;21059;-61
2023/03/15 04:31:53;;;;;;;8.50;5.00;;;0.80;98.20;;;;;;5024774;28;20422;-60
2023/03/15 04:34:18;;;;;;;11.30;4.67;;;0.80;97.90;;;;;;5025237;28;20513;-61
2023/03/15 04:36:44;;;;;;;4.90;3.10;;;0.80;97.70;;;;;;5023626;28;20216;-60
2023/03/15 04:39:11;;;;;;;11.83;4.17;;;0.70;96.20;;;;;;5026402;28;20281;-60
2023/03/15 04:41:38;;;;;;;5.20;3.93;;;0.70;96.20;;;;;;5025530;28;20179;-59
2023/03/15 04:44:04;;;;;;;4.53;3.83;;;0.70;97.40;;;;;;5024909;28;20448;-60
2023/03/15 04:46:31;;;;;;;7.00;3.53;;;0.60;97.60;;;;;;5023548;28;20437;-61
2023/03/15 04:48:57;;;;;;;7.23;4.00;;;0.60;97.80;;;;;;5025051;28;20465;-61
2023/03/15 04:51:23;;;;;;;8.80;3.83;;;0.60;98.00;;;;;;5017946;28;20470;-60
2023/03/15 04:53:48;;;;;;;6.30;3.67;;;0.60;97.90;;;;;;5013648;28;20174;-60
2023/03/15 04:56:14;;;;;;;6.63;3.30;;;0.60;98.70;;;;;;5018883;28;20659;-60
2023/03/15 04:58:40;;;;;;;8.20;4.37;;;0.50;97.40;;;;;;5019323;28;20198;-61
2023/03/15 05:01:05;;;;;;;8.43;4.00;;;0.50;97.50;;;;;;5017125;28;20175;-61
2023/03/15 05:03:31;;;;;;;10.90;3.97;;;0.50;98.20;;;;;;5014359;28;20195;-61
2023/03/15 05:05:56;;;;;;;8.63;4.23;;;0.40;99.70;;;;;;4999919;28;20186;-60
2023/03/15 05:08:22;;;;;;;9.20;4.50;;;0.40;99.90;;;;;;5005771;28;20761;-59
2023/03/15 05:10:47;;;;;;;10.10;3.83;;;0.40;99.90;;;;;;5018118;28;20206;-59
2023/03/15 05:13:13;;;;;;;14.87;4.00;;;0.40;99.90;;;;;;5005444;28;20199;-58
2023/03/15 05:15:39;;;;;;;9.17;4.07;;;0.40;99.90;;;;;;5009477;28;20240;-59
2023/03/15 05:18:05;;;;;;;15.23;3.97;;;0.40;99.90;;;;;;5011362;28;20695;-60
2023/03/15 05:20:30;;;;;;;7.50;3.90;;;0.30;99.30;;;;;;5010571;28;20715;-59
2023/03/15 05:22:57;;;;;;;9.63;4.27;;;0.30;99.90;;;;;;5017289;28;20211;-60
2023/03/15 05:25:23;;;;;;;11.43;3.83;;;0.30;99.90;;;;;;5017818;28;20167;-60
2023/03/15 05:27:49;;;;;;;6.80;3.93;;;0.30;99.30;;;;;;5024483;28;20443;-60
2023/03/15 05:30:15;;;;;;;12.23;4.00;;;0.30;99.90;;;;;;5020252;28;20221;-61
2023/03/15 05:32:43;;;;;;;5.23;3.53;;;0.30;99.70;;;;;;5018099;28;20197;-61
2023/03/15 05:35:10;;;;;;;9.77;3.90;;;0.30;98.70;;;;;;5019506;28;20447;-60
2023/03/15 05:37:36;;;;;;;5.03;3.07;;;0.30;99.40;;;;;;5018013;28;20457;-60
2023/03/15 05:40:03;;;;;;;6.83;3.93;;;0.40;99.90;;;;;;5019651;28;20451;-61
2023/03/15 05:42:30;;;;;;;8.90;5.00;;;0.40;99.60;;;;;;5028310;28;20223;-60
2023/03/15 05:44:56;;;;;;;5.37;3.37;;;0.40;99.40;;;;;;5029203;28;20467;-59
2023/03/15 05:47:22;;;;;;;6.10;3.60;;;0.40;99.10;;;;;;5023029;28;20442;-60
2023/03/15 05:49:48;;;;;;;6.60;3.87;;;0.40;99.20;;;;;;5022526;28;20216;-60
2023/03/15 05:52:15;;;;;;;8.80;4.30;;;0.50;99.40;;;;;;5024557;28;20933;-60
2023/03/15 05:54:40;;;;;;;11.43;4.27;;;0.40;99.20;;;;;;5017201;28;20933;-59
2023/03/15 05:57:06;;;;;;;6.90;4.37;;;0.40;99.40;;;;;;5025593;28;20438;-60
2023/03/15 05:59:32;;;;;;;8.20;3.70;;;0.40;98.80;;;;;;5022113;28;20194;-60
2023/03/15 06:01:58;;;;;;;9.70;4.00;;;0.40;99.80;;;;;;5015048;28;20192;-59
2023/03/15 06:04:24;;;;;;;6.20;3.80;;;0.30;99.60;;;;;;5027169;28;20174;-58
2023/03/15 06:06:51;;;;;;;12.03;4.10;;;0.30;99.90;;;;;;5028238;28;20190;-58
2023/03/15 06:09:16;;;;;;;12.93;3.97;;;0.20;99.90;;;;;;5027708;28;20583;-59
2023/03/15 06:11:42;;;;;;;11.30;5.17;;;0.20;99.90;;;;;;5026218;28;20463;-59
2023/03/15 06:14:08;;;;;;;11.60;5.10;;;0.20;99.90;;;;;;5028574;28;20178;-59
2023/03/15 06:16:33;;;;;;;7.00;3.97;;;0.20;99.90;;;;;;5024579;28;20305;-59
2023/03/15 06:18:59;;;;;;;9.73;4.53;;;0.10;99.90;;;;;;5025324;28;20233;-60
2023/03/15 06:21:25;;;;;;;8.67;4.10;;;0.20;99.90;;;;;;5053022;22;20236;-55
2023/03/15 06:23:50;;;;;;;5.07;3.80;;;0.20;99.90;;;;;;5008639;28;20177;-56
2023/03/15 06:26:18;;;;;;;9.17;4.27;;;0.20;99.90;;;;;;5005424;28;20437;-55
2023/03/15 06:28:44;;;;;;;11.23;4.07;;;0.20;99.90;;;;;;5009130;28;20178;-54
2023/03/15 06:31:11;;;;;;;7.90;4.37;;;0.20;99.90;;;;;;5005754;28;20457;-55
2023/03/15 06:33:37;;;;;;;11.57;4.67;;;0.20;99.90;;;;;;5000434;28;20439;-55
2023/03/15 06:36:03;;;;;;;11.40;7.50;;;0.30;99.90;;;;;;5008027;28;20969;-53
2023/03/15 06:38:30;;;;;;;15.50;4.30;;;0.40;99.90;;;;;;5007984;28;20473;-55
2023/03/15 06:40:57;;;;;;;7.23;4.03;;;0.50;99.90;;;;;;5003494;28;20983;-54
2023/03/15 06:43:24;;;;;;;8.20;4.10;;;0.50;99.90;;;;;;5004087;28;20421;-55
2023/03/15 06:45:49;;;;;;;6.07;4.43;;;0.70;99.90;;;;;;5008232;28;20544;-57
2023/03/15 06:48:16;;;;;;;5.43;3.63;;;0.70;99.90;;;;;;5002539;28;20566;-54
2023/03/15 06:50:41;;;;;;;4.33;3.83;;;0.80;99.90;;;;;;5000866;28;20208;-55
2023/03/15 06:53:07;;;;;;;7.57;3.93;;;0.90;99.90;;;;;;5008545;28;20425;-53
2023/03/15 06:55:33;;;;;;;7.83;4.57;;;0.90;99.90;;;;;;5007867;28;20182;-56
2023/03/15 06:57:59;;;;;;;7.83;4.10;;;0.90;98.50;;;;;;5006049;28;20474;-56
2023/03/15 07:00:25;;;;;;;7.00;4.50;;;1.00;98.60;;;;;;5005564;28;20464;-57
2023/03/15 07:02:50;;;;;;;11.67;4.37;;;1.00;96.70;;;;;;5002149;28;20179;-54
2023/03/15 07:05:16;;;;;;;6.30;4.27;;;1.00;95.40;;;;;;5005703;28;20186;-56
2023/03/15 07:07:41;;;;;;;9.03;4.03;;;1.00;98.10;;;;;;5002652;28;20184;-55
2023/03/15 07:10:08;;;;;;;7.50;3.50;;;1.00;95.20;;;;;;5006365;28;20288;-57
2023/03/15 07:12:33;;;;;;;9.60;4.47;;;1.00;95.00;;;;;;5006964;28;20672;-55
2023/03/15 07:14:59;;;;;;;5.33;3.10;;;1.00;96.30;;;;;;5007331;28;20859;-56
2023/03/15 07:17:25;;;;;;;6.17;3.33;;;1.10;95.80;;;;;;5005405;28;20198;-55
2023/03/15 07:19:51;;;;;;;11.30;3.50;;;1.20;93.90;;;;;;5004972;28;20179;-55
2023/03/15 07:22:16;;;;;;;6.83;3.40;;;1.20;92.50;;;;;;4999095;28;20264;-54
2023/03/15 07:24:42;;;;;;;10.40;3.70;;;1.20;91.00;;;;;;5001432;28;20530;-55
2023/03/15 07:27:11;;;;;;;8.03;3.63;;;1.30;91.40;;;;;;5006050;28;20457;-56
2023/03/15 07:29:37;;;;;;;11.00;3.33;;;1.30;90.30;;;;;;5004353;28;20180;-54
2023/03/15 07:32:02;;;;;;;4.50;3.37;;;1.30;89.50;;;;;;5009443;28;20982;-56
2023/03/15 07:34:28;;;;;;;4.00;3.17;;;1.40;91.30;;;;;;5006947;28;20176;-56
2023/03/15 07:36:53;;;;;;;7.73;3.97;;;1.40;91.10;;;;;;5006161;28;20198;-53
2023/03/15 07:39:19;;;;;;;12.27;3.53;;;1.50;90.30;;;;;;5007213;28;20222;-55
2023/03/15 07:41:45;;;;;;;6.97;3.50;;;1.50;86.60;;;;;;5002019;28;20202;-55
2023/03/15 07:44:10;;;;;;;6.43;3.97;;;1.60;87.60;;;;;;5007210;28;20679;-56
2023/03/15 07:46:37;;;;;;;10.30;3.60;;;1.60;83.10;;;;;;5001214;28;20171;-54
2023/03/15 07:49:03;;;;;;;7.13;3.50;;;1.60;86.20;;;;;;5002540;28;20771;-53
2023/03/15 07:51:28;;;;;;;8.00;3.97;;;1.70;86.00;;;;;;5008375;28;20528;-56
2023/03/15 07:53:54;;;;;;;14.33;3.53;;;1.80;86.20;;;;;;5006896;28;20421;-55
2023/03/15 07:56:20;;;;;;;9.53;4.17;;;1.80;85.10;;;;;;5003770;28;20179;-55
2023/03/15 07:58:45;;;;;;;4.63;3.00;;;1.90;82.40;;;;;;5002788;28;20203;-54
2023/03/15 08:01:11;;;;;;;7.63;3.23;;;1.90;81.50;;;;;;5009282;28;20283;-56
2023/03/15 08:03:37;;;;;;;10.73;3.83;;;2.00;79.80;;;;;;5010348;28;20176;-51
2023/03/15 08:06:02;;;;;;;6.70;3.10;;;2.10;78.70;;;;;;5006906;28;20179;-55
2023/03/15 08:08:28;;;;;;;8.50;2.63;;;2.10;78.00;;;;;;5004440;28;20207;-55
2023/03/15 08:10:54;;;;;;;8.23;3.10;;;2.10;77.00;;;;;;5008139;28;20215;-56
2023/03/15 08:13:20;;;;;;;7.57;3.27;;;2.10;79.20;;;;;;5005350;28;20194;-56
2023/03/15 08:15:46;;;;;;;4.10;2.60;;;2.20;77.30;;;;;;5008449;28;20435;-56
2023/03/15 08:18:12;;;;;;;5.93;2.77;;;2.20;77.20;;;;;;5007876;28;20204;-55
2023/03/15 08:20:38;;;;;;;4.90;2.60;;;2.20;79.10;;;;;;5000527;28;20561;-56
2023/03/15 08:23:03;;;;;;;5.30;3.10;;;2.40;80.00;;;;;;5011505;28;20502;-54
2023/03/15 08:25:29;;;;;;;9.63;3.07;;;2.40;79.80;;;;;;5012336;28;20616;-59
2023/03/15 08:27:55;;;;;;;6.20;3.13;;;2.50;78.10;;;;;;5006889;28;20187;-56
2023/03/15 08:30:21;;;;;;;4.70;2.33;;;2.60;77.50;;;;;;5007375;28;20829;-54
2023/03/15 08:32:47;;;;;;;9.23;2.73;;;2.60;76.10;;;;;;5010342;28;20215;-56
2023/03/15 08:35:16;;;;;;;4.33;2.80;;;2.70;75.60;;;;;;5008265;28;20176;-54
2023/03/15 08:37:46;;;;;;;4.20;2.87;;;2.70;76.10;;;;;;5002673;28;20471;-53
2023/03/15 08:40:17;;;;;;;5.30;2.70;;;2.90;76.10;;;;;;5010524;28;20430;-53
2023/03/15 08:42:44;;;;;;;4.57;2.77;;;2.90;75.00;;;;;;5014606;28;20430;-53
2023/03/15 08:45:10;;;;;;;2.33;2.20;;;2.90;72.60;;;;;;5008600;28;20438;-54
2023/03/15 08:47:36;;;;;;;3.33;2.80;;;2.90;72.70;;;;;;5005635;28;20937;-54
2023/03/15 08:50:07;;;;;;;4.27;2.47;;;2.80;71.90;;;;;;5000882;28;20435;-51
2023/03/15 08:52:33;;;;;;;6.97;2.93;;;2.80;71.80;;;;;;5009045;28;20431;-54
2023/03/15 08:54:59;;;;;;;4.17;3.10;;;2.70;71.80;;;;;;5009548;28;21106;-57
2023/03/15 08:57:28;;;;;;;3.50;2.40;;;2.70;71.90;;;;;;5006203;28;20191;-53
2023/03/15 08:59:55;;;;;;;4.03;2.60;;;2.80;72.60;;;;;;5010421;28;20966;-56
2023/03/15 09:02:21;;;;;;;6.50;2.00;;;2.90;71.60;;;;;;5006471;28;20477;-54
2023/03/15 09:04:47;;;;;;;3.43;2.73;;;3.10;70.90;;;;;;5003737;28;21353;-55
2023/03/15 09:07:14;;;;;;;3.30;2.43;;;3.20;70.30;;;;;;5003156;28;20430;-58
2023/03/15 09:09:40;;;;;;;2.90;2.33;;;3.30;69.00;;;;;;5008842;28;20575;-57
2023/03/15 09:12:06;;;;;;;2.30;2.10;;;3.40;68.20;;;;;;5008695;28;20971;-58
2023/03/15 09:14:32;;;;;;;3.83;2.43;;;3.40;65.80;;;;;;5008139;28;20424;-54
2023/03/15 09:16:58;;;;;;;2.40;2.03;;;3.50;65.00;;;;;;5005758;28;20450;-53
2023/03/15 09:19:24;;;;;;;3.10;2.50;;;3.50;65.00;;;;;;5004035;28;20954;-55
2023/03/15 09:21:50;;;;;;;2.03;1.70;;;3.60;64.00;;;;;;5008946;28;20812;-55
2023/03/15 09:24:15;;;;;;;1.80;1.70;;;3.60;64.00;;;;;;5002003;28;20180;-54
2023/03/15 09:26:41;;;;;;;4.77;2.10;;;3.80;63.50;;;;;;5009505;28;20927;-56
2023/03/15 09:29:08;;;;;;;2.10;1.90;;;3.80;60.90;;;;;;5007986;28;20172;-54
2023/03/15 09:31:34;;;;;;;1.97;1.83;;;3.90;60.90;;;;;;5005039;28;20189;-55
2023/03/15 09:34:00;;;;;;;2.40;2.20;;;3.90;59.80;;;;;;5008529;28;20520;-53
2023/03/15 09:36:26;;;;;;;2.03;1.90;;;4.00;60.20;;;;;;5008880;28;20474;-54
2023/03/15 09:38:51;;;;;;;3.30;2.30;;;4.10;59.20;;;;;;5006758;28;20470;-55
2023/03/15 09:41:39;;;;;;;8.60;2.30;;;4.10;58.10;;;;;;5003482;28;20195;-56
2023/03/15 09:44:29;;;;;;;3.30;1.73;;;4.20;58.30;;;;;;5006936;28;20542;-57
2023/03/15 09:47:04;;;;;;;3.10;1.90;;;4.20;57.90;;;;;;5005166;28;20424;-55
2023/03/15 09:49:32;;;;;;;1.70;1.60;;;4.30;57.60;;;;;;5009555;28;20800;-57
2023/03/15 09:52:04;;;;;;;1.73;1.63;;;4.40;56.60;;;;;;5009585;28;20548;-57
2023/03/15 09:54:53;;;;;;;2.90;1.93;;;4.50;55.90;;;;;;5002188;28;20478;-57
2023/03/15 09:57:40;;;;;;;3.13;1.97;;;4.70;56.40;;;;;;4990005;28;20472;-56
2023/03/15 10:00:13;;;;;;;5.90;1.40;;;4.80;56.00;;;;;;5004771;28;20463;-56
2023/03/15 10:02:44;;;;;;;2.30;2.10;;;4.90;56.10;;;;;;5006035;28;20449;-56
2023/03/15 10:05:15;;;;;;;1.77;1.60;;;5.10;55.70;;;;;;5002014;28;20526;-55
2023/03/15 10:07:41;;;;;;;2.50;1.60;;;5.20;55.50;;;;;;5009092;28;20785;-56
2023/03/15 10:10:20;;;;;;;1.80;1.70;;;5.40;55.60;;;;;;5009277;28;20448;-54
2023/03/15 10:12:57;;;;;;;2.13;1.93;;;5.50;54.30;;;;;;5000733;28;20185;-56
2023/03/15 10:15:35;;;;;;;5.27;1.97;;;5.60;53.70;;;;;;5002839;28;21101;-56
2023/03/15 10:18:37;;;;;;;1.60;1.50;;;5.70;53.20;;;;;;5003505;28;20628;-57
2023/03/15 10:21:24;;;;;;;2.00;1.50;;;5.70;53.20;;;;;;5004884;28;20462;-56
2023/03/15 10:23:53;;;;;;;2.63;1.90;;;5.80;51.60;;;;;;5007557;28;20477;-57
2023/03/15 10:26:27;;;;;;;1.40;1.30;;;6.00;51.20;;;;;;5008921;28;20406;-56
2023/03/15 10:28:53;;;;;;;1.90;1.23;;;6.10;49.50;;;;;;5003457;28;20494;-59
2023/03/15 10:31:26;;;;;;;1.33;1.23;;;6.20;48.60;;;;;;5008596;28;21023;-55
2023/03/15 10:33:53;;;;;;;2.80;1.53;;;6.20;47.20;;;;;;5008648;28;20195;-56
2023/03/15 10:36:24;;;;;;;2.40;1.60;;;6.20;47.80;;;;;;5002965;28;20423;-55
2023/03/15 10:38:49;;;;;;;1.40;1.30;;;6.20;48.10;;;;;;5006439;28;20549;-56
2023/03/15 10:41:38;;;;;;;3.90;1.40;;;6.30;49.60;;;;;;5007709;28;20562;-54
2023/03/15 10:44:19;;;;;;;1.63;1.50;;;6.40;47.80;;;;;;4996859;28;20946;-56
2023/03/15 10:47:06;;;;;;;1.90;1.50;;;6.50;47.90;;;;;;5006791;28;20777;-56
2023/03/15 10:49:34;;;;;;;1.33;1.20;;;6.50;49.10;;;;;;5000302;28;20454;-56
2023/03/15 10:52:00;;;;;;;2.17;1.83;;;6.70;49.60;;;;;;5007906;28;20422;-60
2023/03/15 10:54:26;;;;;;;4.87;1.50;;;6.90;49.30;;;;;;5004409;28;20990;-56
2023/03/15 10:57:05;;;;;;;2.83;1.57;;;7.00;47.80;;;;;;5002204;28;20199;-56
2023/03/15 10:59:34;;;;;;;1.70;1.60;;;7.00;46.50;;;;;;5005628;28;20465;-56
2023/03/15 11:02:22;;;;;;;1.43;1.17;;;7.10;45.60;;;;;;5006656;28;20542;-56
2023/03/15 11:05:14;;;;;;;1.67;1.27;;;7.10;44.30;;;;;;4999812;28;20439;-56
2023/03/15 11:07:54;;;;;;;1.50;1.30;;;6.90;44.80;;;;;;4987254;28;20525;-57
2023/03/15 11:10:25;;;;;;;1.90;1.80;;;7.00;47.70;;;;;;4987034;28;20463;-57
2023/03/15 11:13:27;;;;;;;1.47;1.20;;;7.20;47.30;;;;;;4988034;28;21058;-61
2023/03/15 11:16:04;;;;;;;1.50;1.40;;;7.40;46.90;;;;;;4990066;28;20516;-61
2023/03/15 11:18:32;;;;;;;1.40;1.30;;;7.70;47.10;;;;;;4995840;28;20477;-59
2023/03/15 11:21:00;;;;;;;1.33;1.23;;;7.90;46.30;;;;;;4984084;28;20513;-58
2023/03/15 11:23:37;;;;;;;1.73;1.63;;;8.10;44.80;;;;;;4995119;28;20447;-57
2023/03/15 11:26:03;;;;;;;3.13;1.50;;;8.20;44.20;;;;;;4990179;28;20949;-57
2023/03/15 11:28:34;;;;;;;4.47;1.50;;;8.50;44.80;;;;;;4990665;28;20527;-57
2023/03/15 11:31:00;;;;;;;1.70;1.47;;;8.70;43.20;;;;;;4983495;28;20459;-63
2023/03/15 11:33:37;;;;;;;1.57;1.40;;;8.90;43.20;;;;;;4995686;28;20444;-59
2023/03/15 11:36:17;;;;;;;1.30;1.20;;;9.20;44.00;;;;;;5001748;28;20458;-60
2023/03/15 11:38:44;;;;;;;2.07;1.27;;;9.60;43.20;;;;;;5007019;28;20455;-56
2023/03/15 11:41:40;;;;;;;1.60;1.30;;;9.60;40.80;;;;;;5014385;28;20549;-60
2023/03/15 11:44:38;;;;;;;2.20;1.57;;;9.60;40.70;;;;;;4999901;28;20860;-59
2023/03/15 11:47:16;;;;;;;1.87;1.30;;;9.50;39.50;;;;;;4985420;28;21087;-59
2023/03/15 11:49:54;;;;;;;2.30;1.50;;;9.20;39.80;;;;;;4994744;28;20516;-57
2023/03/15 11:52:22;;;;;;;1.80;1.33;;;8.80;40.70;;;;;;4997408;28;20431;-56
2023/03/15 11:54:49;;;;;;;2.30;1.57;;;8.80;42.30;;;;;;4995455;28;20428;-56
2023/03/15 11:57:36;;;;;;;1.20;1.20;;;8.60;40.70;;;;;;4993914;28;20471;-60
2023/03/15 12:00:25;;;;;;;1.83;1.10;;;8.30;42.20;;;;;;4999792;28;20464;-60
2023/03/15 12:03:18;;;;;;;5.67;1.70;;;8.30;42.90;;;;;;5004146;28;20442;-61
2023/03/15 12:06:15;;;;;;;1.60;1.30;;;8.50;43.50;;;;;;5006594;28;20799;-57
2023/03/15 12:08:53;;;;;;;1.30;1.20;;;8.50;42.80;;;;;;4995465;28;20473;-59
2023/03/15 12:11:19;;;;;;;1.60;1.40;;;8.50;42.00;;;;;;5009619;28;21049;-56
2023/03/15 12:14:00;;;;;;;1.23;1.13;;;8.30;42.50;;;;;;5004006;28;20447;-57
2023/03/15 12:16:28;;;;;;;2.50;1.10;;;8.60;42.60;;;;;;5011980;28;20283;-59
2023/03/15 12:19:00;;;;;;;2.10;1.47;;;8.70;41.90;;;;;;5008124;28;20992;-56
2023/03/15 12:21:36;;;;;;;3.57;1.30;;;9.00;40.70;;;;;;5010957;28;20513;-59
2023/03/15 12:24:14;;;;;;;1.83;1.20;;;9.30;39.90;;;;;;5010653;28;20995;-57
2023/03/15 12:26:48;;;;;;;1.53;1.10;;;9.70;39.50;;;;;;5005032;28;20502;-56
2023/03/15 12:29:28;;;;;;;1.40;1.30;;;10.00;38.00;;;;;;5006976;28;20441;-58
2023/03/15 12:32:02;;;;;;;1.23;1.07;;;10.10;36.40;;;;;;5011140;28;20546;-58
2023/03/15 12:34:50;;;;;;;2.30;1.27;;;10.30;37.10;;;;;;5009519;28;20482;-60
2023/03/15 12:37:17;;;;;;;1.00;0.90;;;10.50;36.00;;;;;;4992397;28;20440;-59
2023/03/15 12:40:09;;;;;;;1.77;1.17;;;10.60;37.10;;;;;;4996592;28;20462;-59
2023/03/15 12:42:37;;;;;;;1.37;1.27;;;10.90;37.60;;;;;;4977095;28;21028;-56
2023/03/15 12:45:15;;;;;;;2.30;1.00;;;11.20;37.70;;;;;;5010291;28;20916;-58
2023/03/15 12:47:50;;;;;;;1.07;0.97;;;11.50;36.60;;;;;;5001890;28;20439;-58
2023/03/15 12:50:43;;;;;;;1.90;1.07;;;11.40;35.00;;;;;;5008114;28;20455;-56
2023/03/15 12:53:14;;;;;;;2.80;0.90;;;11.60;37.40;;;;;;5002824;28;20431;-58
2023/03/15 12:55:40;;;;;;;1.00;1.00;;;11.80;38.20;;;;;;5011627;28;20415;-58
2023/03/15 12:58:11;;;;;;;0.90;0.90;;;11.60;35.70;;;;;;5006648;28;20517;-58
2023/03/15 13:00:40;;;;;;;4.53;1.10;;;11.60;36.80;;;;;;5006628;28;20494;-60
2023/03/15 13:03:15;;;;;;;1.73;1.00;;;11.70;36.80;;;;;;5010596;28;20427;-56
2023/03/15 13:05:42;;;;;;;1.10;1.00;;;12.00;36.80;;;;;;5004611;28;20517;-58